Time;durP1;ratioP1;P1;durP2;ratioP2;P2;SDS_P1;SDS_P2;PMS_P1;PMS_P2;Temp;Humidity;BMP_temperature;BMP_pressure;BME280_temperature;BME280_humidity;BME280_pressure;Samples;Min_cycle;Max_cycle;Signal;HPM_P1;HPM_P2
2021/11/16 00:02:07;;;;;;;40.30;22.00;;;8.80;99.90;;;;;;4918630;29;20661;-81
2021/11/16 00:04:34;;;;;;;40.70;21.33;;;8.90;99.90;;;;;;4918284;29;20633;-81
2021/11/16 00:06:59;;;;;;;36.70;21.17;;;9.00;99.90;;;;;;4918697;29;20187;-81
2021/11/16 00:09:25;;;;;;;43.70;21.97;;;9.20;99.90;;;;;;4918296;29;20711;-80
2021/11/16 00:11:51;;;;;;;36.63;21.20;;;9.30;99.90;;;;;;4917730;29;20276;-81
2021/11/16 00:14:17;;;;;;;39.97;22.40;;;9.30;99.90;;;;;;4918617;29;20725;-81
2021/11/16 00:16:44;;;;;;;38.40;22.17;;;9.30;99.90;;;;;;4918666;29;20228;-81
2021/11/16 00:19:15;;;;;;;38.67;22.10;;;9.40;99.90;;;;;;4918025;29;20192;-81
2021/11/16 00:21:43;;;;;;;40.83;23.27;;;9.40;99.90;;;;;;4918301;29;20717;-91
2021/11/16 00:24:18;;;;;;;40.77;21.83;;;9.40;99.90;;;;;;4902014;29;20231;-91
2021/11/16 00:26:45;;;;;;;40.60;23.13;;;9.40;99.90;;;;;;4901748;29;20191;-86
2021/11/16 00:29:12;;;;;;;39.63;21.87;;;9.50;99.90;;;;;;4896605;29;20249;-87
2021/11/16 00:31:38;;;;;;;38.33;20.60;;;9.40;99.90;;;;;;4895802;29;20184;-86
2021/11/16 00:34:04;;;;;;;40.37;22.30;;;9.40;99.90;;;;;;4896187;29;20622;-88
2021/11/16 00:36:31;;;;;;;38.33;21.63;;;9.30;99.90;;;;;;4906669;29;20213;-87
2021/11/16 00:38:58;;;;;;;37.97;21.87;;;9.00;99.90;;;;;;4901700;29;20224;-87
2021/11/16 00:41:24;;;;;;;39.53;21.47;;;8.80;99.90;;;;;;4902056;29;20191;-88
2021/11/16 00:43:50;;;;;;;38.33;21.23;;;8.90;99.90;;;;;;4901748;29;20194;-87
2021/11/16 00:46:16;;;;;;;39.17;20.53;;;8.80;99.90;;;;;;4901603;29;20191;-88
2021/11/16 00:48:42;;;;;;;36.90;20.93;;;8.80;99.90;;;;;;4901708;29;20186;-86
2021/11/16 00:51:09;;;;;;;36.97;20.83;;;8.70;99.90;;;;;;4902075;29;20216;-87
2021/11/16 00:53:37;;;;;;;38.17;20.67;;;8.90;99.90;;;;;;4902190;29;20178;-87
2021/11/16 00:56:04;;;;;;;38.13;20.87;;;9.10;99.90;;;;;;4909019;29;20704;-88
2021/11/16 00:58:30;;;;;;;34.80;20.33;;;9.00;99.90;;;;;;4901923;29;20625;-87
2021/11/16 01:00:57;;;;;;;41.33;22.37;;;8.90;99.90;;;;;;4901846;29;20184;-87
2021/11/16 01:03:26;;;;;;;35.80;20.43;;;8.80;99.90;;;;;;4900186;29;20214;-86
2021/11/16 01:05:52;;;;;;;34.97;21.17;;;8.90;99.90;;;;;;4901882;29;20223;-86
2021/11/16 01:08:18;;;;;;;37.87;20.47;;;8.90;99.90;;;;;;4902309;29;20200;-87
2021/11/16 01:10:45;;;;;;;36.70;20.87;;;8.80;99.90;;;;;;4913485;29;20220;-87
2021/11/16 01:13:13;;;;;;;37.30;20.77;;;8.80;99.90;;;;;;4901946;29;20252;-86
2021/11/16 01:15:41;;;;;;;36.80;20.83;;;8.70;99.90;;;;;;4901589;29;20211;-87
2021/11/16 01:18:08;;;;;;;36.97;21.47;;;8.80;99.90;;;;;;4900651;29;20280;-87
2021/11/16 01:20:34;;;;;;;38.50;21.77;;;9.20;99.90;;;;;;4918156;29;20196;-86
2021/11/16 01:23:02;;;;;;;39.33;21.00;;;9.20;99.90;;;;;;4901601;29;20185;-85
2021/11/16 01:25:28;;;;;;;38.43;20.67;;;9.30;99.90;;;;;;4901190;29;20274;-86
2021/11/16 01:28:00;;;;;;;45.60;22.03;;;9.30;99.90;;;;;;4914536;29;20186;-86
2021/11/16 01:30:27;;;;;;;42.40;22.20;;;9.10;99.90;;;;;;4901392;29;20223;-86
2021/11/16 01:33:12;;;;;;;39.50;21.33;;;9.00;99.90;;;;;;4901110;29;20195;-86
2021/11/16 01:35:39;;;;;;;38.47;21.00;;;8.90;99.90;;;;;;4909105;29;20644;-85
2021/11/16 01:38:08;;;;;;;43.07;21.50;;;9.10;99.90;;;;;;4906145;29;20663;-88
2021/11/16 01:40:34;;;;;;;48.73;21.63;;;9.10;99.90;;;;;;4894378;29;20193;-86
2021/11/16 01:43:03;;;;;;;42.80;20.73;;;9.00;99.90;;;;;;4920045;29;20204;-87
2021/11/16 01:45:29;;;;;;;40.50;21.57;;;9.00;99.90;;;;;;4901753;29;20187;-88
2021/11/16 01:47:56;;;;;;;40.70;22.03;;;9.00;99.90;;;;;;4901339;29;20637;-87
2021/11/16 01:50:22;;;;;;;40.27;21.20;;;8.90;99.90;;;;;;4900835;29;20224;-87
2021/11/16 01:52:49;;;;;;;44.27;21.63;;;8.90;99.90;;;;;;4909590;29;20654;-87
2021/11/16 01:55:17;;;;;;;40.03;21.57;;;8.80;99.90;;;;;;4905160;29;20180;-87
2021/11/16 01:57:43;;;;;;;37.87;20.43;;;8.80;99.90;;;;;;4917816;29;20184;-92
2021/11/16 02:00:18;;;;;;;40.77;21.27;;;8.90;99.90;;;;;;4900461;29;20276;-86
2021/11/16 02:02:44;;;;;;;41.33;21.87;;;9.10;99.90;;;;;;4900851;29;20199;-87
2021/11/16 02:05:11;;;;;;;36.43;21.00;;;8.90;99.90;;;;;;4900846;29;20212;-87
2021/11/16 02:07:39;;;;;;;37.57;21.50;;;8.80;99.90;;;;;;4900666;29;20219;-87
2021/11/16 02:10:05;;;;;;;43.73;22.07;;;8.70;99.90;;;;;;4911641;29;20650;-87
2021/11/16 02:12:31;;;;;;;46.63;22.93;;;8.80;99.90;;;;;;4902830;29;20208;-87
2021/11/16 02:14:56;;;;;;;38.37;21.63;;;8.90;99.90;;;;;;4899856;29;20184;-87
2021/11/16 02:17:22;;;;;;;39.80;22.03;;;8.80;99.90;;;;;;4900267;29;20246;-87
2021/11/16 02:19:48;;;;;;;41.47;21.07;;;8.80;99.90;;;;;;4900506;29;20189;-87
2021/11/16 02:22:14;;;;;;;43.53;22.60;;;8.80;99.90;;;;;;4917334;29;20192;-88
2021/11/16 02:24:40;;;;;;;43.87;21.70;;;8.80;99.90;;;;;;4904865;29;20537;-87
2021/11/16 02:27:06;;;;;;;39.30;22.03;;;8.80;99.90;;;;;;4909563;29;20200;-86
2021/11/16 02:29:32;;;;;;;41.47;22.03;;;8.90;99.90;;;;;;4900319;29;20223;-87
2021/11/16 02:31:59;;;;;;;42.27;21.73;;;8.80;99.90;;;;;;4900251;29;20228;-88
2021/11/16 02:34:25;;;;;;;39.90;21.33;;;8.70;99.90;;;;;;4900292;29;20641;-87
2021/11/16 02:36:51;;;;;;;41.33;22.07;;;8.70;99.90;;;;;;4900385;29;20182;-86
2021/11/16 02:39:17;;;;;;;43.37;22.17;;;8.80;99.90;;;;;;4900318;29;20207;-86
2021/11/16 02:41:50;;;;;;;45.27;23.23;;;8.70;99.90;;;;;;4913588;29;20177;-87
2021/11/16 02:44:18;;;;;;;39.43;20.83;;;8.70;99.90;;;;;;4900115;29;20689;-86
2021/11/16 02:46:46;;;;;;;40.70;21.90;;;8.70;99.90;;;;;;4903910;29;20236;-86
2021/11/16 02:49:12;;;;;;;42.03;21.97;;;8.60;99.90;;;;;;4909872;29;20184;-87
2021/11/16 02:51:39;;;;;;;40.97;22.07;;;8.70;99.90;;;;;;4901521;29;20191;-87
2021/11/16 02:54:17;;;;;;;41.17;20.53;;;8.70;99.90;;;;;;4900984;29;20181;-87
2021/11/16 02:56:45;;;;;;;42.97;22.07;;;8.80;99.90;;;;;;4902402;29;20196;-89
2021/11/16 02:59:12;;;;;;;39.97;20.70;;;8.90;99.90;;;;;;4910977;29;20267;-88
2021/11/16 03:01:38;;;;;;;39.13;22.20;;;8.80;99.90;;;;;;4900041;29;20180;-88
2021/11/16 03:04:04;;;;;;;42.20;21.93;;;8.70;99.90;;;;;;4900418;29;20196;-86
2021/11/16 03:06:30;;;;;;;39.23;21.47;;;8.60;99.90;;;;;;4900553;29;20184;-86
2021/11/16 03:08:56;;;;;;;40.53;22.00;;;9.00;99.90;;;;;;4904497;29;20647;-87
2021/11/16 03:11:22;;;;;;;50.77;24.63;;;9.00;99.90;;;;;;4908616;29;20220;-89
2021/11/16 03:13:48;;;;;;;47.40;22.50;;;8.80;99.90;;;;;;4899712;29;20272;-86
2021/11/16 03:16:17;;;;;;;46.80;23.03;;;9.00;99.90;;;;;;4905231;29;20236;-87
2021/11/16 03:18:45;;;;;;;45.17;22.57;;;9.20;99.90;;;;;;4908293;29;20642;-88
2021/11/16 03:21:12;;;;;;;43.60;22.47;;;9.00;99.90;;;;;;4900213;29;20666;-86
2021/11/16 03:23:43;;;;;;;46.50;23.50;;;8.90;99.90;;;;;;4900032;29;20185;-87
2021/11/16 03:26:09;;;;;;;43.57;22.33;;;8.90;99.90;;;;;;4900096;29;20704;-85
2021/11/16 03:28:37;;;;;;;45.70;23.80;;;9.00;99.90;;;;;;4899348;29;20325;-86
2021/11/16 03:31:11;;;;;;;43.07;22.43;;;8.90;99.90;;;;;;4899900;29;20220;-86
2021/11/16 03:33:39;;;;;;;46.37;22.97;;;8.80;99.90;;;;;;4901203;29;20403;-87
2021/11/16 03:36:05;;;;;;;43.93;23.40;;;8.80;99.90;;;;;;4904943;29;20194;-86
2021/11/16 03:38:33;;;;;;;48.37;24.07;;;8.80;99.90;;;;;;4912481;29;20206;-86
2021/11/16 03:40:59;;;;;;;48.93;23.93;;;8.90;99.90;;;;;;4911030;29;20268;-93
2021/11/16 03:43:25;;;;;;;48.23;24.20;;;9.00;99.90;;;;;;4916296;29;20211;-92
2021/11/16 03:45:51;;;;;;;46.37;23.33;;;8.90;99.90;;;;;;4903520;29;20199;-91
2021/11/16 03:48:19;;;;;;;49.40;23.50;;;8.80;99.90;;;;;;4903263;29;20668;-92
2021/11/16 03:50:45;;;;;;;46.97;22.97;;;8.90;99.90;;;;;;4903553;29;20285;-91
2021/11/16 03:53:13;;;;;;;45.00;23.03;;;8.90;99.90;;;;;;4903332;29;20183;-92
2021/11/16 03:55:42;;;;;;;46.53;23.17;;;8.90;99.90;;;;;;4903459;29;20272;-92
2021/11/16 03:58:10;;;;;;;49.50;23.43;;;8.90;99.90;;;;;;4902884;29;20553;-92
2021/11/16 04:00:41;;;;;;;47.37;23.07;;;8.80;99.90;;;;;;4903664;29;20680;-92
2021/11/16 04:03:07;;;;;;;43.57;22.33;;;8.90;99.90;;;;;;4903053;29;20244;-92
2021/11/16 04:05:33;;;;;;;41.30;23.17;;;9.10;99.90;;;;;;4903088;29;20215;-92
2021/11/16 04:07:59;;;;;;;48.07;24.23;;;9.00;99.90;;;;;;4902845;29;20193;-92
2021/11/16 04:10:27;;;;;;;49.43;23.80;;;9.10;99.90;;;;;;4915910;29;20594;-91
2021/11/16 04:12:53;;;;;;;47.17;24.20;;;9.10;99.90;;;;;;4903089;29;20187;-91
2021/11/16 04:15:22;;;;;;;46.63;23.93;;;8.80;99.90;;;;;;4903204;29;20182;-92
2021/11/16 04:17:49;;;;;;;43.27;22.53;;;8.60;99.90;;;;;;4902793;29;20597;-92
2021/11/16 04:20:18;;;;;;;45.17;23.13;;;8.60;99.90;;;;;;4902715;29;20202;-92
2021/11/16 04:22:45;;;;;;;46.93;24.47;;;8.70;99.90;;;;;;4902563;29;20223;-91
2021/11/16 04:25:12;;;;;;;47.00;24.27;;;8.60;99.90;;;;;;4902632;29;20642;-92
2021/11/16 04:27:39;;;;;;;44.50;23.03;;;8.50;99.90;;;;;;4916946;29;20198;-92
2021/11/16 04:30:08;;;;;;;46.00;23.90;;;8.50;99.90;;;;;;4915144;29;20223;-91
2021/11/16 04:32:34;;;;;;;49.93;24.70;;;8.50;99.90;;;;;;4903103;29;20180;-92
2021/11/16 04:34:59;;;;;;;44.47;22.53;;;8.60;99.90;;;;;;4916302;29;20187;-91
2021/11/16 04:37:26;;;;;;;48.40;23.53;;;8.70;99.90;;;;;;4913463;29;20637;-91
2021/11/16 04:39:52;;;;;;;48.17;24.17;;;8.80;99.90;;;;;;4904427;29;20228;-92
2021/11/16 04:42:22;;;;;;;49.80;25.23;;;8.80;99.90;;;;;;4902314;29;20212;-91
2021/11/16 04:44:48;;;;;;;48.30;25.23;;;8.90;99.90;;;;;;4903129;29;20192;-91
2021/11/16 04:47:16;;;;;;;50.07;24.13;;;8.90;99.90;;;;;;4913594;29;20189;-91
2021/11/16 04:49:45;;;;;;;49.57;24.83;;;8.90;99.90;;;;;;4902311;29;20208;-92
2021/11/16 05:02:40;;;;;;;47.47;24.33;;;8.70;99.90;;;;;;4929780;29;20189;-91
2021/11/16 05:05:09;;;;;;;50.80;25.47;;;8.70;99.90;;;;;;4901689;29;20188;-91
2021/11/16 05:07:36;;;;;;;51.53;26.37;;;8.70;99.90;;;;;;4902217;29;20184;-91
2021/11/16 05:10:05;;;;;;;52.93;26.63;;;8.60;99.90;;;;;;4901996;29;20220;-92
2021/11/16 05:12:32;;;;;;;53.27;27.07;;;8.70;99.90;;;;;;4904159;29;20207;-91
2021/11/16 05:15:02;;;;;;;53.50;27.70;;;8.60;99.90;;;;;;4912911;29;20178;-92
2021/11/16 05:17:28;;;;;;;52.73;25.13;;;8.60;99.90;;;;;;4916132;29;20230;-92
2021/11/16 05:19:55;;;;;;;53.63;26.20;;;8.60;99.90;;;;;;4920853;29;20578;-91
2021/11/16 05:22:21;;;;;;;53.43;26.43;;;8.70;99.90;;;;;;4908230;29;20733;-92
2021/11/16 05:24:47;;;;;;;56.77;27.73;;;8.70;99.90;;;;;;4901124;29;20188;-91
2021/11/16 05:27:15;;;;;;;52.67;27.17;;;8.70;99.90;;;;;;4918700;29;20186;-92
2021/11/16 05:29:41;;;;;;;53.10;27.10;;;8.80;99.90;;;;;;4901467;29;20231;-92
2021/11/16 05:32:07;;;;;;;54.07;26.90;;;8.70;99.90;;;;;;4901648;29;20241;-92
2021/11/16 05:34:33;;;;;;;60.57;28.57;;;8.70;99.90;;;;;;4901356;29;20229;-92
2021/11/16 05:36:58;;;;;;;59.03;28.63;;;8.80;99.90;;;;;;4901293;29;20209;-91
2021/11/16 05:39:24;;;;;;;59.47;28.63;;;9.00;99.90;;;;;;4901716;29;20261;-90
2021/11/16 05:41:50;;;;;;;64.23;28.83;;;8.90;99.90;;;;;;4901108;29;20575;-91
2021/11/16 05:44:16;;;;;;;58.70;28.57;;;9.00;99.90;;;;;;4901607;29;20676;-92
2021/11/16 05:46:42;;;;;;;56.50;28.33;;;9.10;99.90;;;;;;4917497;29;20178;-92
2021/11/16 05:49:08;;;;;;;58.30;28.00;;;8.90;99.90;;;;;;4903206;29;20715;-92
2021/11/16 05:51:33;;;;;;;56.63;27.20;;;9.00;99.90;;;;;;4901158;29;20274;-92
2021/11/16 05:54:03;;;;;;;50.50;24.60;;;8.90;99.90;;;;;;4901042;29;20189;-92
2021/11/16 05:56:34;;;;;;;53.50;27.03;;;8.70;99.90;;;;;;4900632;29;20180;-92
2021/11/16 05:59:01;;;;;;;55.87;27.03;;;8.50;99.90;;;;;;4901242;29;20182;-92
2021/11/16 06:01:30;;;;;;;57.00;27.23;;;8.50;99.90;;;;;;4901045;29;20200;-92
2021/11/16 06:03:56;;;;;;;59.33;26.17;;;8.50;99.90;;;;;;4901062;29;20615;-92
2021/11/16 09:27:48;;;;;;;75.47;32.47;;;9.00;99.90;;;;;;4929908;28;20190;-95
2021/11/16 09:37:43;;;;;;;;;;;;;;;;;;;;;
2021/11/16 09:40:53;;;;;;;68.07;29.63;;;9.00;99.90;;;;;;4913377;29;20574;-96
2021/11/16 09:43:26;;;;;;;71.20;30.77;;;9.00;99.90;;;;;;4925272;29;20210;-95
2021/11/16 10:21:34;;;;;;;65.67;29.37;;;9.20;99.90;;;;;;3092472;23;20626;-83
2021/11/16 10:31:30;;;;;;;70.00;30.00;;;9.00;99.90;;;;;;4853903;29;20213;-93
2021/11/16 10:34:03;;;;;;;67.53;30.33;;;8.80;99.90;;;;;;4865696;29;20201;-94
2021/11/16 10:36:31;;;;;;;69.87;29.57;;;9.00;99.90;;;;;;4865420;29;20561;-91
2021/11/16 10:39:44;;;;;;;66.03;29.47;;;9.10;99.90;;;;;;4863666;29;20330;-92
2021/11/16 10:57:28;;;;;;;65.37;29.00;;;9.20;99.90;;;;;;4951412;29;20221;-91
2021/11/16 10:59:58;;;;;;;61.40;28.63;;;9.20;99.90;;;;;;4961837;29;20183;-93
